createdAt,value
2018-01-31T01:52:21.203Z,7.77
2018-01-31T01:54:46.497Z,7.40
2018-01-31T01:57:14.308Z,7.23
2018-01-31T01:59:42.046Z,7.17
2018-01-31T02:02:10.110Z,6.63
2018-01-31T02:04:38.176Z,7.33
2018-01-31T02:07:06.491Z,7.10
2018-01-31T02:09:34.442Z,7.10
2018-01-31T02:12:02.631Z,7.60
2018-01-31T02:14:30.586Z,6.70
2018-01-31T02:16:59.151Z,7.07
2018-01-31T02:19:27.220Z,7.33
2018-01-31T02:21:55.288Z,7.70
2018-01-31T02:24:23.350Z,7.77
2018-01-31T02:26:51.442Z,7.10
2018-01-31T02:29:19.508Z,7.40
2018-01-31T02:31:47.574Z,7.60
2018-01-31T02:34:15.739Z,6.77
2018-01-31T02:36:43.805Z,7.83
2018-01-31T02:39:23.702Z,6.87
2018-01-31T02:41:51.534Z,7.67
2018-01-31T02:44:19.723Z,6.67
2018-01-31T02:46:47.700Z,7.50
2018-01-31T02:49:15.866Z,6.97
2018-01-31T02:51:43.895Z,7.07
2018-01-31T02:54:11.985Z,7.00
2018-01-31T02:56:40.088Z,6.73
2018-01-31T02:59:08.143Z,6.87
2018-01-31T03:01:36.018Z,7.30
2018-01-31T03:04:04.130Z,6.83
2018-01-31T03:06:31.940Z,7.33
2018-01-31T03:09:00.008Z,6.03
2018-01-31T03:11:28.057Z,6.13
2018-01-31T03:13:56.811Z,7.93
2018-01-31T03:16:24.930Z,6.33
2018-01-31T03:18:53.017Z,6.87
2018-01-31T03:21:21.085Z,7.10
2018-01-31T03:23:49.086Z,6.33
2018-01-31T03:26:17.275Z,6.27
2018-01-31T03:28:45.266Z,6.57
2018-01-31T03:31:13.496Z,6.50
2018-01-31T03:33:41.762Z,6.67
2018-01-31T03:36:09.737Z,6.33
2018-01-31T03:38:38.026Z,5.63
2018-01-31T03:41:06.618Z,6.73
2018-01-31T03:43:34.736Z,6.40
2018-01-31T03:46:02.716Z,6.37
2018-01-31T03:48:30.618Z,5.60
2018-01-31T03:50:58.373Z,6.33
2018-01-31T03:53:26.441Z,6.40
2018-01-31T03:55:54.259Z,6.30
2018-01-31T03:58:22.593Z,5.63
2018-01-31T04:00:50.971Z,6.40
2018-01-31T04:03:18.773Z,6.83
2018-01-31T04:05:46.612Z,6.10
2018-01-31T04:08:14.733Z,6.33
2018-01-31T04:10:42.822Z,6.20
2018-01-31T04:13:11.722Z,5.60
2018-01-31T04:15:39.953Z,6.10
2018-01-31T04:18:08.072Z,6.30
2018-01-31T04:20:36.310Z,6.83
2018-01-31T04:23:04.375Z,5.80
2018-01-31T04:25:32.442Z,6.20
2018-01-31T04:28:00.973Z,5.80
2018-01-31T04:30:28.795Z,6.10
2018-01-31T04:32:56.562Z,6.53
2018-01-31T04:35:24.614Z,5.50
2018-01-31T04:37:52.646Z,6.37
2018-01-31T04:40:20.883Z,5.97
2018-01-31T04:42:49.701Z,5.97
2018-01-31T04:45:17.784Z,5.50
2018-01-31T04:47:46.150Z,6.00
2018-01-31T04:50:14.539Z,5.80
2018-01-31T04:52:42.602Z,6.47
2018-01-31T04:55:10.726Z,6.30
2018-01-31T04:57:38.744Z,6.23
2018-01-31T05:00:06.823Z,6.17
2018-01-31T05:02:35.192Z,6.23
2018-01-31T05:05:03.015Z,6.03
2018-01-31T05:07:31.080Z,5.83
2018-01-31T05:09:59.172Z,6.57
2018-01-31T05:12:27.396Z,5.80
2018-01-31T05:14:55.545Z,6.40
2018-01-31T05:17:23.618Z,6.17
2018-01-31T05:19:51.696Z,5.67
2018-01-31T05:22:19.933Z,6.70
2018-01-31T05:24:47.893Z,5.83
2018-01-31T05:27:15.906Z,5.13
2018-01-31T05:29:43.847Z,5.43
2018-01-31T05:32:11.912Z,5.73
2018-01-31T05:34:39.553Z,5.17
2018-01-31T05:37:07.571Z,5.60
2018-01-31T05:39:35.507Z,5.30
2018-01-31T05:42:03.606Z,6.23
2018-01-31T05:44:31.786Z,6.77
2018-01-31T05:46:59.680Z,6.23
2018-01-31T05:49:27.769Z,5.97
2018-01-31T05:51:55.639Z,6.30
2018-01-31T05:54:23.757Z,6.27
2018-01-31T05:56:51.594Z,6.70
2018-01-31T05:59:19.662Z,6.55
2018-01-31T06:01:47.980Z,6.85
2018-01-31T06:04:16.348Z,6.10
2018-01-31T06:06:44.441Z,6.70
2018-01-31T06:09:13.439Z,6.87
2018-01-31T06:11:41.317Z,6.77
2018-01-31T06:14:10.350Z,7.00
2018-01-31T06:16:38.419Z,6.72
2018-01-31T06:19:06.493Z,7.20
2018-01-31T06:21:34.433Z,7.60
2018-01-31T06:24:03.080Z,7.53
2018-01-31T06:26:31.147Z,7.37
2018-01-31T06:28:59.096Z,6.37
2018-01-31T06:31:26.978Z,7.53
2018-01-31T06:33:54.749Z,7.13
2018-01-31T06:36:23.115Z,7.03
2018-01-31T06:38:51.503Z,7.30
2018-01-31T06:41:19.398Z,7.78
2018-01-31T06:43:47.264Z,7.47
2018-01-31T06:46:15.155Z,8.10
2018-01-31T06:48:42.973Z,7.20
2018-01-31T06:51:10.794Z,8.57
2018-01-31T06:53:38.694Z,8.20
2018-01-31T06:56:06.781Z,7.73
2018-01-31T06:58:34.962Z,7.87
2018-01-31T07:01:03.206Z,7.67
2018-01-31T07:03:30.980Z,8.00
2018-01-31T07:05:58.932Z,9.07
2018-01-31T07:08:26.815Z,7.78
2018-01-31T07:10:54.894Z,7.60
2018-01-31T07:13:23.255Z,9.23
2018-01-31T07:15:51.073Z,8.75
2018-01-31T07:18:19.398Z,8.30
2018-01-31T07:20:47.286Z,8.30
2018-01-31T07:23:15.292Z,8.93
2018-01-31T07:25:43.922Z,8.77
2018-01-31T07:28:11.872Z,7.57
2018-01-31T07:30:39.861Z,8.17
2018-01-31T07:33:07.823Z,8.75
2018-01-31T07:35:36.514Z,7.85
2018-01-31T07:38:04.625Z,7.67
2018-01-31T07:40:33.279Z,8.10
2018-01-31T07:43:02.342Z,7.63
2018-01-31T07:45:30.635Z,8.77
2018-01-31T07:47:59.964Z,7.63
2018-01-31T07:50:27.714Z,8.00
2018-01-31T07:52:55.466Z,7.90
2018-01-31T07:55:23.230Z,8.93
2018-01-31T07:57:51.418Z,8.53
2018-01-31T08:00:20.378Z,8.37
2018-01-31T08:02:50.372Z,8.60
2018-01-31T08:05:18.333Z,8.93
2018-01-31T08:07:46.436Z,9.10
2018-01-31T08:10:15.029Z,8.33
2018-01-31T08:12:43.101Z,7.47
2018-01-31T08:15:11.082Z,7.90
2018-01-31T08:17:38.950Z,8.07
2018-01-31T08:20:07.023Z,8.30
2018-01-31T08:22:34.782Z,8.30
2018-01-31T08:25:02.635Z,7.60
2018-01-31T08:27:30.659Z,8.97
2018-01-31T08:29:58.740Z,9.20
2018-01-31T08:32:26.558Z,9.18
2018-01-31T08:34:54.406Z,8.50
2018-01-31T08:37:22.463Z,7.90
2018-01-31T08:39:50.540Z,7.83
2018-01-31T08:42:18.431Z,7.73
2018-01-31T08:44:46.484Z,8.37
2018-01-31T08:47:14.652Z,8.05
2018-01-31T08:49:42.539Z,8.17
2018-01-31T08:52:10.508Z,7.50
2018-01-31T08:54:38.781Z,8.55
2018-01-31T08:57:06.541Z,8.90
2018-01-31T08:59:34.680Z,7.13
2018-01-31T09:02:02.497Z,7.63
2018-01-31T09:04:31.512Z,9.10
2018-01-31T09:06:59.748Z,7.30
2018-01-31T09:09:27.517Z,6.30
2018-01-31T09:11:55.317Z,7.05
2018-01-31T09:14:23.043Z,7.20
2018-01-31T09:16:50.804Z,7.00
2018-01-31T09:19:18.636Z,7.03
2018-01-31T09:21:46.345Z,7.23
2018-01-31T09:24:14.099Z,8.07
2018-01-31T09:26:42.834Z,7.20
2018-01-31T09:29:10.849Z,7.68
2018-01-31T09:31:38.665Z,7.30
2018-01-31T09:34:07.474Z,7.50
2018-01-31T09:36:35.567Z,6.70
2018-01-31T09:39:04.087Z,6.93
2018-01-31T09:41:32.324Z,6.87
2018-01-31T09:44:00.402Z,6.07
2018-01-31T09:46:28.571Z,6.87
2018-01-31T09:48:56.334Z,6.07
2018-01-31T09:51:24.411Z,7.25
2018-01-31T09:53:52.277Z,7.45
2018-01-31T09:56:20.556Z,6.60
2018-01-31T09:58:48.251Z,7.05
2018-01-31T10:01:15.902Z,5.87
2018-01-31T10:03:44.424Z,6.47
2018-01-31T10:06:12.099Z,6.00
2018-01-31T10:08:39.730Z,5.83
2018-01-31T10:11:07.399Z,5.63
2018-01-31T10:13:35.165Z,6.95
2018-01-31T10:16:02.973Z,5.80
2018-01-31T10:18:31.087Z,5.83
2018-01-31T10:20:59.121Z,5.95
2018-01-31T10:23:26.921Z,5.33
2018-01-31T10:25:55.136Z,5.67
2018-01-31T10:28:23.277Z,5.63
2018-01-31T10:30:51.081Z,6.73
2018-01-31T10:33:18.906Z,5.90
2018-01-31T10:35:47.646Z,6.05
2018-01-31T10:38:15.345Z,5.03
2018-01-31T10:40:43.371Z,5.93
2018-01-31T10:43:11.136Z,6.53
2018-01-31T10:45:39.260Z,6.78
2018-01-31T10:48:06.966Z,6.43
2018-01-31T10:50:34.732Z,6.20
2018-01-31T10:53:03.017Z,5.90
2018-01-31T10:57:28.598Z,5.67
2018-01-31T10:57:58.687Z,6.40
2018-01-31T11:00:28.250Z,6.50
2018-01-31T11:02:56.625Z,6.43
2018-01-31T11:05:24.564Z,7.68
2018-01-31T11:07:52.576Z,6.30
2018-01-31T11:10:21.302Z,6.53
2018-01-31T11:12:49.210Z,6.27
2018-01-31T11:15:16.990Z,7.53
2018-01-31T11:17:44.803Z,7.18
2018-01-31T11:20:12.521Z,6.10
2018-01-31T11:22:40.373Z,6.00
2018-01-31T11:25:08.362Z,6.60
2018-01-31T11:27:36.711Z,6.30
2018-01-31T11:30:05.468Z,6.37
2018-01-31T11:32:33.634Z,6.57
2018-01-31T11:35:01.574Z,5.90
2018-01-31T11:37:29.670Z,6.83
2018-01-31T11:39:58.324Z,7.12
2018-01-31T11:42:26.378Z,7.50
2018-01-31T11:44:54.140Z,7.00
2018-01-31T11:47:22.389Z,7.07
2018-01-31T11:49:50.445Z,7.72
2018-01-31T11:52:18.652Z,6.73
2018-01-31T11:54:46.252Z,7.05
2018-01-31T11:57:13.861Z,6.37
2018-01-31T11:59:41.474Z,7.85
2018-01-31T12:02:09.039Z,7.65
2018-01-31T12:04:36.647Z,7.70
2018-01-31T12:07:04.252Z,8.85
2018-01-31T12:09:37.560Z,7.57
2018-01-31T12:12:05.974Z,7.37
2018-01-31T12:14:45.383Z,7.83
2018-01-31T12:17:13.007Z,7.20
2018-01-31T12:20:02.322Z,7.23
2018-01-31T12:25:45.382Z,8.87
2018-01-31T12:28:24.933Z,7.73
2018-01-31T12:31:04.256Z,8.18
2018-01-31T12:33:43.454Z,8.32
2018-01-31T12:36:22.719Z,8.27
2018-01-31T12:39:00.253Z,7.50
2018-01-31T12:41:27.293Z,8.43
2018-01-31T12:43:54.528Z,7.85
2018-01-31T12:49:45.751Z,8.55
2018-01-31T12:52:34.956Z,8.40
2018-01-31T12:55:14.225Z,8.52
2018-01-31T12:57:53.551Z,8.88
2018-01-31T13:00:34.304Z,7.53
2018-01-31T13:03:11.848Z,9.45
2018-01-31T13:05:51.175Z,8.50
2018-01-31T13:08:30.498Z,8.60
2018-01-31T13:11:09.754Z,8.60
2018-01-31T13:13:49.201Z,9.33
2018-01-31T13:19:19.539Z,8.63
2018-01-31T13:21:59.011Z,8.17
2018-01-31T13:24:39.475Z,8.43
2018-01-31T13:27:18.767Z,7.77
2018-01-31T13:29:57.993Z,7.83
2018-01-31T13:35:52.144Z,8.13
2018-01-31T13:38:31.535Z,9.20
2018-01-31T13:41:10.814Z,8.57
2018-01-31T13:43:49.975Z,9.07
2018-01-31T13:46:29.730Z,9.50
2018-01-31T13:49:09.900Z,9.33
2018-01-31T13:51:49.286Z,8.23
2018-01-31T13:54:28.890Z,10.00
2018-01-31T13:57:08.240Z,10.00
2018-01-31T13:59:49.646Z,10.20
2018-01-31T14:02:28.868Z,9.63
2018-01-31T14:05:08.154Z,9.03
2018-01-31T14:10:54.028Z,9.70
2018-01-31T14:13:33.375Z,9.83
2018-01-31T14:16:12.624Z,9.82
2018-01-31T14:18:51.838Z,9.90
2018-01-31T14:21:31.907Z,9.80
2018-01-31T14:24:11.236Z,11.52
2018-01-31T14:26:50.528Z,10.33
2018-01-31T14:32:29.580Z,10.27
2018-01-31T14:35:08.873Z,11.37
2018-01-31T14:37:35.967Z,11.57
2018-01-31T14:40:02.989Z,10.67
2018-01-31T14:42:30.466Z,11.83
2018-01-31T14:44:57.998Z,11.20
2018-01-31T14:47:25.213Z,12.00
2018-01-31T14:49:52.284Z,11.27
2018-01-31T14:52:20.441Z,10.73
2018-01-31T14:54:47.460Z,11.47
2018-01-31T14:57:14.528Z,12.43
2018-01-31T14:59:41.615Z,14.40
2018-01-31T15:02:09.558Z,12.67
2018-01-31T15:04:37.419Z,12.83
2018-01-31T15:07:04.462Z,12.17
2018-01-31T15:09:31.584Z,12.63
2018-01-31T15:11:58.652Z,12.10
2018-01-31T15:14:25.887Z,12.73
2018-01-31T15:16:53.692Z,13.20
2018-01-31T15:19:20.757Z,12.37
2018-01-31T15:21:47.810Z,13.80
2018-01-31T15:24:15.374Z,15.68
2018-01-31T15:26:42.956Z,13.03
2018-01-31T15:29:10.683Z,14.97
2018-01-31T15:31:38.999Z,14.97
2018-01-31T15:34:07.053Z,13.83
2018-01-31T15:36:34.388Z,14.70
2018-01-31T15:39:01.892Z,14.73
2018-01-31T15:41:28.959Z,16.10
2018-01-31T15:43:56.099Z,19.43
2018-01-31T15:46:23.669Z,32.80
2018-01-31T15:48:52.596Z,37.70
2018-01-31T15:51:20.308Z,36.47
2018-01-31T15:53:48.455Z,42.83
2018-01-31T15:56:16.116Z,49.13
2018-01-31T15:58:43.959Z,55.93
2018-01-31T16:01:12.037Z,47.53
2018-01-31T16:03:39.052Z,47.63
2018-01-31T16:06:07.152Z,46.47
2018-01-31T16:08:34.176Z,48.33
2018-01-31T16:11:01.904Z,49.30
2018-01-31T16:13:29.891Z,48.83
2018-01-31T16:15:57.859Z,53.33
2018-01-31T16:18:37.617Z,51.83
2018-01-31T16:21:17.262Z,52.53
2018-01-31T16:23:45.486Z,46.93
2018-01-31T16:26:14.799Z,47.63
2018-01-31T16:28:55.542Z,45.30
2018-01-31T16:31:35.088Z,43.27
2018-01-31T16:34:04.596Z,41.77
2018-01-31T16:36:34.056Z,43.03
2018-01-31T16:39:03.727Z,45.30
2018-01-31T16:41:32.092Z,43.23
2018-01-31T16:44:01.161Z,44.33
2018-01-31T16:46:30.777Z,44.63
2018-01-31T16:48:59.878Z,43.90
2018-01-31T16:51:28.062Z,44.83
2018-01-31T16:53:57.764Z,45.33
2018-01-31T16:56:25.981Z,46.83
2018-01-31T16:58:54.808Z,47.90
2018-01-31T17:01:24.351Z,48.10
2018-01-31T17:03:54.031Z,48.63
2018-01-31T17:06:23.042Z,48.80
2018-01-31T17:08:52.549Z,49.97
2018-01-31T17:11:21.562Z,48.37
2018-01-31T17:13:50.092Z,47.17
2018-01-31T17:16:18.679Z,55.57
2018-01-31T17:18:47.035Z,55.77
2018-01-31T17:21:16.661Z,51.97
2018-01-31T17:23:46.210Z,56.67
2018-01-31T17:26:22.040Z,58.43
2018-01-31T17:28:51.016Z,55.37
2018-01-31T17:31:20.627Z,55.03
2018-01-31T17:33:49.108Z,60.13
2018-01-31T17:36:18.601Z,64.83
2018-01-31T17:38:46.833Z,74.80
2018-01-31T17:41:16.281Z,68.07
2018-01-31T17:43:48.226Z,68.57
2018-01-31T17:46:17.650Z,64.70
2018-01-31T17:48:45.950Z,62.73
2018-01-31T17:51:16.269Z,59.70
2018-01-31T17:53:46.112Z,58.70
2018-01-31T17:56:15.868Z,60.50
2018-01-31T17:58:44.484Z,60.30
2018-01-31T18:01:15.239Z,60.33
2018-01-31T18:03:46.740Z,58.90
2018-01-31T18:06:16.165Z,59.93
2018-01-31T18:08:45.144Z,63.27
2018-01-31T18:11:15.378Z,66.60
2018-01-31T18:13:43.441Z,65.73
2018-01-31T18:16:12.856Z,61.67
2018-01-31T18:18:40.889Z,61.73
2018-01-31T18:21:09.308Z,59.90
2018-01-31T18:23:39.599Z,60.73
2018-01-31T18:26:07.832Z,61.07
2018-01-31T18:28:36.612Z,57.90
2018-01-31T18:31:05.865Z,60.97
2018-01-31T18:33:35.810Z,59.90
2018-01-31T18:36:06.881Z,60.43
2018-01-31T18:38:35.208Z,57.27
2018-01-31T18:41:03.467Z,55.40
2018-01-31T18:43:32.406Z,58.10
2018-01-31T18:46:03.002Z,57.57
2018-01-31T18:48:31.788Z,56.30
2018-01-31T18:51:00.675Z,57.33
2018-01-31T18:53:29.358Z,56.90
2018-01-31T18:55:59.700Z,56.17
2018-01-31T18:58:29.277Z,56.17
2018-01-31T19:00:58.009Z,55.17
2018-01-31T19:03:27.467Z,56.83
2018-01-31T19:05:57.342Z,56.37
2018-01-31T19:08:27.237Z,55.83
2018-01-31T19:10:57.008Z,55.10
2018-01-31T19:13:25.556Z,55.43
2018-01-31T19:15:56.737Z,55.57
2018-01-31T19:18:26.928Z,55.87
2018-01-31T19:20:56.198Z,57.33
2018-01-31T19:23:26.418Z,56.17
2018-01-31T19:25:55.737Z,55.63
2018-01-31T19:28:24.630Z,53.97
2018-01-31T19:30:55.541Z,53.43
2018-01-31T19:33:24.602Z,51.23
2018-01-31T19:35:54.148Z,50.17
2018-01-31T19:38:22.779Z,53.57
2018-01-31T19:40:51.995Z,51.43
2018-01-31T19:43:20.368Z,52.07
2018-01-31T19:45:49.061Z,50.07
2018-01-31T19:48:18.566Z,52.10
2018-01-31T19:50:47.669Z,54.10
2018-01-31T19:53:16.543Z,52.93
2018-01-31T19:55:47.074Z,54.07
2018-01-31T19:58:15.385Z,53.50
2018-01-31T20:00:44.824Z,51.73
2018-01-31T20:03:13.655Z,51.00
2018-01-31T20:05:42.432Z,50.73
2018-01-31T20:08:12.643Z,51.00
2018-01-31T20:10:41.269Z,51.20
2018-01-31T20:13:11.488Z,51.07
2018-01-31T20:15:42.086Z,49.83
2018-01-31T20:18:11.509Z,48.23
2018-01-31T20:20:40.987Z,47.60
2018-01-31T20:23:12.142Z,45.63
2018-01-31T20:25:40.819Z,44.07
2018-01-31T20:28:10.052Z,46.17
2018-01-31T20:30:39.111Z,47.00
2018-01-31T20:33:08.443Z,47.27
2018-01-31T20:35:37.710Z,47.13
2018-01-31T20:38:06.488Z,46.90
2018-01-31T20:40:35.697Z,45.77
2018-01-31T20:43:04.948Z,45.63
2018-01-31T20:45:34.234Z,44.37
2018-01-31T20:48:04.767Z,46.00
2018-01-31T20:50:33.516Z,46.90
2018-01-31T20:53:02.515Z,45.40
2018-01-31T20:55:32.268Z,45.30
2018-01-31T20:58:00.422Z,44.20
2018-01-31T21:00:29.170Z,44.73
2018-01-31T21:02:57.461Z,41.43
2018-01-31T21:05:26.225Z,41.63
2018-01-31T21:07:55.048Z,42.97
2018-01-31T21:10:24.009Z,44.27
2018-01-31T21:12:52.284Z,44.77
2018-01-31T21:15:21.379Z,43.50
2018-01-31T21:17:49.229Z,42.63
2018-01-31T21:20:18.319Z,43.00
2018-01-31T21:22:46.716Z,43.17
2018-01-31T21:25:17.508Z,41.57
2018-01-31T21:27:46.241Z,42.07
2018-01-31T21:30:16.905Z,42.90
2018-01-31T21:32:46.929Z,43.00
2018-01-31T21:35:15.373Z,44.70
2018-01-31T21:37:44.674Z,43.60
2018-01-31T21:40:13.348Z,44.50
2018-01-31T21:42:42.034Z,43.60
2018-01-31T21:45:10.415Z,44.77
2018-01-31T21:47:39.096Z,44.53
2018-01-31T21:50:07.386Z,43.37
2018-01-31T21:52:35.628Z,46.57
2018-01-31T21:55:04.020Z,46.23
2018-01-31T21:57:45.442Z,45.77
2018-01-31T22:00:13.602Z,45.73
2018-01-31T22:02:41.219Z,46.23
2018-01-31T22:05:09.689Z,46.53
2018-01-31T22:07:38.435Z,47.33
2018-01-31T22:10:06.034Z,46.83
2018-01-31T22:12:34.683Z,47.47
2018-01-31T22:15:02.871Z,46.90
2018-01-31T22:17:30.466Z,48.03
2018-01-31T22:19:58.088Z,46.80
2018-01-31T22:22:27.038Z,48.63
2018-01-31T22:24:55.123Z,47.40
2018-01-31T22:27:23.687Z,47.80
2018-01-31T22:29:51.495Z,47.10
2018-01-31T22:32:19.489Z,47.50
2018-01-31T22:34:47.067Z,46.97
2018-01-31T22:37:15.006Z,49.30
2018-01-31T22:39:42.547Z,48.33
2018-01-31T22:42:10.511Z,46.53
2018-01-31T22:44:38.064Z,45.93
2018-01-31T22:47:06.287Z,46.23
2018-01-31T22:49:34.003Z,46.10
2018-01-31T22:52:01.568Z,44.97
2018-01-31T22:54:29.176Z,47.37
2018-01-31T22:56:56.755Z,46.93
2018-01-31T22:59:24.307Z,46.07
2018-01-31T23:01:51.894Z,45.80
2018-01-31T23:04:19.448Z,46.17
2018-01-31T23:06:47.056Z,46.33
2018-01-31T23:09:14.662Z,46.93
2018-01-31T23:11:45.063Z,45.13
2018-01-31T23:14:18.056Z,45.60
2018-01-31T23:16:45.602Z,45.90
2018-01-31T23:19:13.202Z,45.37
2018-01-31T23:21:41.199Z,47.47
2018-01-31T23:24:08.752Z,48.27
2018-01-31T23:26:36.347Z,46.00
2018-01-31T23:29:03.893Z,44.80
2018-01-31T23:31:31.452Z,44.97
2018-01-31T23:33:59.358Z,46.00
2018-01-31T23:36:26.907Z,46.53
2018-01-31T23:38:54.466Z,44.50
2018-01-31T23:41:22.620Z,45.67
2018-01-31T23:43:50.617Z,44.17
2018-01-31T23:46:18.188Z,46.13
2018-01-31T23:48:45.791Z,46.47
2018-01-31T23:51:13.359Z,44.50
2018-01-31T23:53:40.951Z,43.93
2018-01-31T23:56:08.504Z,45.97
2018-01-31T23:58:37.277Z,46.53
